Time;durP1;ratioP1;P1;durP2;ratioP2;P2;SDS_P1;SDS_P2;PMS_P1;PMS_P2;Temp;Humidity;BMP_temperature;BMP_pressure;BME280_temperature;BME280_humidity;BME280_pressure;Samples;Min_cycle;Max_cycle;Signal;HPM_P1;HPM_P2
2022/10/11 00:01:40;;;;;;;13.43;4.50;;;;;;;7.25;100.00;102273.28;5012903;28;20033;-70
2022/10/11 00:04:07;;;;;;;17.33;4.60;;;;;;;7.21;100.00;102269.22;5015241;28;20057;-69
2022/10/11 00:06:33;;;;;;;12.45;4.57;;;;;;;7.21;100.00;102266.53;5014698;28;20057;-70
2022/10/11 00:08:58;;;;;;;14.43;4.60;;;;;;;7.14;100.00;102276.31;5030135;28;20103;-70
2022/10/11 00:11:23;;;;;;;10.95;4.35;;;;;;;7.09;100.00;102274.09;5033014;28;20021;-70
2022/10/11 00:13:49;;;;;;;11.32;4.45;;;;;;;7.15;100.00;102266.38;5033581;28;20449;-69
2022/10/11 00:16:14;;;;;;;12.93;5.20;;;;;;;7.12;100.00;102264.84;5034741;28;20021;-69
2022/10/11 00:18:40;;;;;;;13.57;4.47;;;;;;;7.16;100.00;102268.91;5034357;28;20109;-68
2022/10/11 00:21:10;;;;;;;9.43;4.35;;;;;;;7.14;100.00;102278.16;5034464;28;20021;-70
2022/10/11 00:23:40;;;;;;;10.65;4.47;;;;;;;7.08;100.00;102271.56;5032786;28;20472;-68
2022/10/11 00:26:08;;;;;;;10.40;4.28;;;;;;;7.00;100.00;102268.88;5034324;28;20041;-69
2022/10/11 00:28:34;;;;;;;12.07;4.30;;;;;;;7.00;100.00;102271.56;5033741;28;20067;-69
2022/10/11 00:31:00;;;;;;;12.98;4.63;;;;;;;7.03;100.00;102273.94;5034244;28;20017;-70
2022/10/11 00:33:25;;;;;;;12.05;4.10;;;;;;;6.97;100.00;102278.13;5049583;28;20112;-70
2022/10/11 00:35:51;;;;;;;12.57;4.60;;;;;;;6.99;100.00;102277.97;5034136;28;20030;-69
2022/10/11 00:38:17;;;;;;;11.57;4.15;;;;;;;6.90;100.00;102286.03;5032845;28;20033;-69
2022/10/11 00:40:43;;;;;;;9.88;4.35;;;;;;;6.87;100.00;102280.13;5032550;28;20037;-69
2022/10/11 00:43:21;;;;;;;13.52;4.10;;;;;;;6.85;100.00;102296.44;5033106;28;20024;-70
2022/10/11 00:45:55;;;;;;;11.68;4.65;;;;;;;6.90;100.00;102295.97;5048203;28;20039;-68
2022/10/11 00:48:22;;;;;;;14.10;4.78;;;;;;;6.81;100.00;102297.78;5033996;28;20083;-69
2022/10/11 00:50:48;;;;;;;11.77;4.07;;;;;;;6.82;100.00;102304.00;5032371;28;20120;-70
2022/10/11 00:53:14;;;;;;;12.18;4.78;;;;;;;6.78;100.00;102297.25;5032534;28;20079;-69
2022/10/11 00:55:50;;;;;;;12.82;4.60;;;;;;;6.84;100.00;102300.16;5032630;28;20437;-67
2022/10/11 00:58:17;;;;;;;11.68;4.32;;;;;;;6.80;100.00;102301.47;5033772;28;20380;-70
2022/10/11 01:00:42;;;;;;;13.75;4.82;;;;;;;6.81;100.00;102297.78;5030979;28;20013;-69
2022/10/11 01:03:08;;;;;;;10.93;4.50;;;;;;;6.79;100.00;102294.41;5033737;28;20033;-69
2022/10/11 01:05:36;;;;;;;10.30;4.75;;;;;;;6.80;100.00;102306.03;5033454;28;20022;-68
2022/10/11 01:08:02;;;;;;;12.77;4.03;;;;;;;6.81;100.00;102303.16;5017966;28;20014;-67
2022/10/11 01:10:28;;;;;;;11.52;4.03;;;;;;;6.83;100.00;102300.31;5013777;28;20040;-71
2022/10/11 01:13:07;;;;;;;10.05;3.90;;;;;;;6.80;100.00;102303.34;5012746;28;20022;-70
2022/10/11 01:15:44;;;;;;;8.25;3.88;;;;;;;6.70;100.00;102306.16;5013537;28;20037;-68
2022/10/11 01:18:21;;;;;;;13.65;4.18;;;;;;;6.62;100.00;102303.44;5013592;28;20461;-69
2022/10/11 01:20:58;;;;;;;12.15;4.38;;;;;;;6.67;100.00;102309.16;5013478;28;20065;-69
2022/10/11 01:24:01;;;;;;;11.88;4.43;;;;;;;6.67;100.00;102306.47;5013762;28;20048;-69
2022/10/11 01:27:05;;;;;;;13.35;4.70;;;;;;;6.64;100.00;102301.41;5012031;28;20072;-70
2022/10/11 01:30:01;;;;;;;10.80;4.65;;;;;;;6.62;100.00;102312.34;5002784;28;20030;-70
2022/10/11 01:32:35;;;;;;;12.18;4.68;;;;;;;6.56;100.00;102311.16;5011009;28;20099;-68
2022/10/11 01:35:09;;;;;;;10.13;4.55;;;;;;;6.50;100.00;102306.41;5027182;28;20025;-68
2022/10/11 01:37:51;;;;;;;13.27;4.47;;;;;;;6.58;100.00;102305.59;5032753;28;20021;-67
2022/10/11 01:40:23;;;;;;;12.75;4.72;;;;;;;6.54;100.00;102312.34;5032257;28;20396;-69
2022/10/11 01:42:51;;;;;;;12.05;4.47;;;;;;;6.55;100.00;102319.38;5032763;28;20017;-70
2022/10/11 01:45:18;;;;;;;8.15;4.28;;;;;;;6.51;100.00;102316.19;5033155;28;20104;-70
2022/10/11 01:47:47;;;;;;;9.43;4.43;;;;;;;6.50;100.00;102317.16;5032731;28;20084;-69
2022/10/11 01:50:37;;;;;;;12.15;4.57;;;;;;;6.48;100.00;102313.81;5033049;28;20449;-69
2022/10/11 01:53:21;;;;;;;11.68;4.20;;;;;;;6.45;100.00;102322.22;5030661;28;20017;-69
2022/10/11 01:56:00;;;;;;;12.32;4.95;;;;;;;6.42;100.00;102317.16;5032455;28;20070;-70
2022/10/11 01:58:59;;;;;;;13.07;4.53;;;;;;;6.49;100.00;102315.50;5032676;28;20488;-69
2022/10/11 02:01:47;;;;;;;11.70;5.00;;;;;;;6.41;100.00;102320.84;5030271;28;20033;-69
2022/10/11 02:04:40;;;;;;;10.25;4.60;;;;;;;6.49;100.00;102325.41;5032646;28;20065;-69
2022/10/11 02:07:21;;;;;;;11.63;4.63;;;;;;;6.43;100.00;102324.22;5031160;28;20075;-70
2022/10/11 02:09:55;;;;;;;12.33;4.37;;;;;;;6.39;100.00;102323.69;5031341;28;20017;-69
2022/10/11 02:12:31;;;;;;;11.93;4.55;;;;;;;6.38;100.00;102326.53;5032457;28;20044;-69
2022/10/11 02:14:58;;;;;;;12.52;4.22;;;;;;;6.34;100.00;102325.16;5032474;28;20029;-70
2022/10/11 02:17:29;;;;;;;9.55;4.40;;;;;;;6.27;100.00;102332.22;5032377;28;20017;-69
2022/10/11 02:19:58;;;;;;;13.73;4.88;;;;;;;6.29;100.00;102331.03;5031232;28;20483;-70
2022/10/11 02:22:32;;;;;;;11.13;4.35;;;;;;;6.28;100.00;102328.50;5030889;28;20112;-70
2022/10/11 02:25:01;;;;;;;13.65;4.90;;;;;;;6.25;100.00;102328.81;5031253;28;20440;-68
2022/10/11 02:27:29;;;;;;;8.95;4.57;;;;;;;6.24;100.00;102327.97;5011548;28;20450;-69
2022/10/11 02:29:58;;;;;;;10.18;4.97;;;;;;;6.27;100.00;102330.34;5012830;28;20039;-70
2022/10/11 02:32:25;;;;;;;14.43;5.25;;;;;;;6.19;100.00;102325.78;5011371;28;20018;-69
2022/10/11 02:34:54;;;;;;;10.43;4.55;;;;;;;6.14;100.00;102329.94;5027741;28;20017;-69
2022/10/11 02:37:28;;;;;;;10.45;4.30;;;;;;;6.16;100.00;102328.78;5011400;28;20018;-68
2022/10/11 02:40:10;;;;;;;10.50;4.97;;;;;;;6.19;100.00;102331.16;5012722;28;20028;-70
2022/10/11 02:42:42;;;;;;;10.07;4.70;;;;;;;6.21;100.00;102341.75;5012184;28;20372;-69
2022/10/11 02:45:14;;;;;;;11.65;4.78;;;;;;;6.18;100.00;102334.84;5027904;28;20026;-69
2022/10/11 02:47:41;;;;;;;13.40;5.00;;;;;;;6.14;100.00;102330.78;5012339;28;20026;-69
2022/10/11 02:50:07;;;;;;;11.57;4.88;;;;;;;6.08;100.00;102333.25;5012443;28;20029;-70
2022/10/11 02:52:32;;;;;;;12.07;4.97;;;;;;;6.07;100.00;102324.38;5015120;28;20029;-69
2022/10/11 02:54:57;;;;;;;13.30;4.75;;;;;;;6.08;100.00;102328.72;5015206;28;20109;-68
2022/10/11 02:57:23;;;;;;;11.93;4.90;;;;;;;5.96;100.00;102325.44;5016229;28;20473;-69
2022/10/11 02:59:48;;;;;;;11.43;5.00;;;;;;;5.97;100.00;102331.69;5015009;28;20045;-67
2022/10/11 03:02:13;;;;;;;12.30;5.15;;;;;;;5.95;100.00;102333.63;5013743;28;20071;-69
2022/10/11 03:04:39;;;;;;;11.85;5.03;;;;;;;5.92;100.00;102337.50;5014520;28;20083;-68
2022/10/11 03:07:04;;;;;;;13.98;4.90;;;;;;;5.96;100.00;102335.34;5016078;28;20100;-69
2022/10/11 03:09:29;;;;;;;12.15;4.97;;;;;;;5.93;100.00;102336.47;5027722;28;20097;-68
2022/10/11 03:11:55;;;;;;;11.38;5.38;;;;;;;5.93;100.00;102335.66;5035521;28;20052;-69
2022/10/11 03:14:20;;;;;;;9.93;4.75;;;;;;;5.98;100.00;102344.97;5035782;28;20023;-70
2022/10/11 03:16:45;;;;;;;9.68;4.78;;;;;;;5.91;100.00;102343.88;5035620;28;20021;-69
2022/10/11 03:19:11;;;;;;;10.07;4.72;;;;;;;5.95;100.00;102344.38;5035659;28;20053;-68
2022/10/11 03:21:36;;;;;;;10.20;4.88;;;;;;;5.94;100.00;102348.94;5035493;28;20021;-68
2022/10/11 03:24:02;;;;;;;10.02;4.60;;;;;;;5.90;100.00;102346.72;5035814;28;20175;-69
2022/10/11 03:26:27;;;;;;;10.07;4.70;;;;;;;5.89;100.00;102345.03;5035361;28;20026;-68
2022/10/11 03:28:53;;;;;;;13.48;5.32;;;;;;;5.78;100.00;102344.28;5035417;28;20029;-68
2022/10/11 03:31:22;;;;;;;12.32;4.75;;;;;;;5.74;100.00;102340.22;5029904;28;20041;-68
2022/10/11 03:33:47;;;;;;;11.38;5.25;;;;;;;5.73;100.00;102351.97;5015370;28;20026;-69
2022/10/11 03:36:13;;;;;;;10.23;4.63;;;;;;;5.82;100.00;102348.34;5015416;28;20032;-69
2022/10/11 03:38:41;;;;;;;11.43;5.15;;;;;;;5.76;100.00;102357.03;5015295;28;20026;-69
2022/10/11 03:41:07;;;;;;;12.27;5.00;;;;;;;5.80;100.00;102352.19;5030669;28;20014;-68
2022/10/11 03:43:32;;;;;;;13.35;5.35;;;;;;;5.77;100.00;102353.34;5015318;28;20033;-68
2022/10/11 03:45:57;;;;;;;13.88;4.82;;;;;;;5.67;100.00;102358.78;5015153;28;20129;-68
2022/10/11 03:48:23;;;;;;;10.30;4.95;;;;;;;5.68;100.00;102355.13;5015391;28;20022;-70
2022/10/11 03:50:48;;;;;;;12.77;4.82;;;;;;;5.68;100.00;102362.34;5015214;28;20469;-67
2022/10/11 03:53:13;;;;;;;14.38;5.82;;;;;;;5.69;100.00;102361.31;5015110;28;20048;-67
2022/10/11 03:55:40;;;;;;;11.85;4.93;;;;;;;5.76;100.00;102361.56;5030428;28;20022;-68
2022/10/11 03:58:06;;;;;;;13.57;4.88;;;;;;;5.70;100.00;102373.75;5015148;28;20075;-68
2022/10/11 04:00:32;;;;;;;13.10;5.28;;;;;;;5.67;100.00;102368.69;5012889;28;20025;-69
2022/10/11 04:02:58;;;;;;;9.88;4.93;;;;;;;5.60;100.00;102373.00;5012691;28;20014;-69
2022/10/11 04:05:23;;;;;;;12.07;5.18;;;;;;;5.59;100.00;102371.34;5030265;28;20017;-68
2022/10/11 04:07:49;;;;;;;10.68;5.00;;;;;;;5.59;100.00;102361.41;5014747;28;20014;-67
2022/10/11 04:10:14;;;;;;;12.02;5.20;;;;;;;5.56;100.00;102368.97;5015087;28;20028;-69
2022/10/11 04:12:40;;;;;;;10.90;4.75;;;;;;;5.53;100.00;102371.94;5014879;28;20457;-68
2022/10/11 04:15:06;;;;;;;11.57;5.50;;;;;;;5.50;100.00;102368.56;5015391;28;20060;-69
2022/10/11 04:17:31;;;;;;;9.52;5.03;;;;;;;5.43;100.00;102377.38;5013439;28;20033;-68
2022/10/11 04:19:56;;;;;;;12.02;5.10;;;;;;;5.48;100.00;102373.25;5015073;28;20026;-69
2022/10/11 04:22:22;;;;;;;11.10;5.22;;;;;;;5.49;100.00;102377.59;5014927;28;20103;-69
2022/10/11 04:24:48;;;;;;;12.00;6.50;;;;;;;5.53;100.00;102377.31;5029571;28;20496;-69
2022/10/11 04:27:13;;;;;;;12.25;6.25;;;;;;;5.46;100.00;102383.28;5014435;28;20057;-68
2022/10/11 04:29:38;;;;;;;9.05;5.82;;;;;;;5.43;100.00;102388.13;5014328;28;20042;-67
2022/10/11 04:32:04;;;;;;;12.23;6.28;;;;;;;5.44;100.00;102395.19;5014767;28;20140;-69
2022/10/11 04:34:30;;;;;;;11.73;6.80;;;;;;;5.42;100.00;102398.03;5014070;28;20022;-68
2022/10/11 04:36:55;;;;;;;12.45;7.20;;;;;;;5.43;100.00;102399.69;5013069;28;20454;-70
2022/10/11 04:39:20;;;;;;;14.57;8.25;;;;;;;5.47;100.00;102400.25;5025230;28;20028;-70
2022/10/11 04:41:46;;;;;;;16.13;7.90;;;;;;;5.44;100.00;102396.03;5028928;28;20025;-70
2022/10/11 04:44:11;;;;;;;14.98;8.20;;;;;;;5.44;100.00;102396.03;5013312;28;20017;-70
2022/10/11 04:46:36;;;;;;;14.82;8.65;;;;;;;5.46;100.00;102399.38;5029352;28;20113;-68
2022/10/11 04:49:02;;;;;;;15.20;7.05;;;;;;;5.39;100.00;102398.34;5013932;28;20076;-68
2022/10/11 04:51:27;;;;;;;12.55;6.90;;;;;;;5.35;100.00;102396.94;5029586;28;20021;-70
2022/10/11 04:53:53;;;;;;;17.95;7.07;;;;;;;5.41;100.00;102400.88;5012997;28;20014;-69
2022/10/11 04:56:18;;;;;;;11.98;6.35;;;;;;;5.33;100.00;102405.16;5013154;28;20260;-68
2022/10/11 04:58:46;;;;;;;10.23;6.32;;;;;;;5.30;100.00;102404.63;5013817;28;20025;-68
2022/10/11 05:01:12;;;;;;;10.70;5.93;;;;;;;5.26;100.00;102405.91;5011021;28;20107;-68
2022/10/11 05:03:37;;;;;;;17.13;6.32;;;;;;;5.27;100.00;102399.56;5013945;28;20081;-70
2022/10/11 05:06:03;;;;;;;10.48;5.50;;;;;;;5.28;100.00;102402.09;5012589;28;20026;-70
2022/10/11 05:08:29;;;;;;;13.43;5.95;;;;;;;5.27;100.00;102404.94;5045870;28;20030;-69
2022/10/11 05:10:56;;;;;;;12.50;5.70;;;;;;;5.19;100.00;102402.13;5013610;28;20068;-69
2022/10/11 05:13:22;;;;;;;13.93;5.97;;;;;;;5.20;100.00;102406.53;5013816;28;20107;-70
2022/10/11 05:15:47;;;;;;;10.68;5.43;;;;;;;5.25;100.00;102409.59;5012527;28;20053;-69
2022/10/11 05:18:12;;;;;;;13.75;5.95;;;;;;;5.26;100.00;102419.34;5013597;28;20064;-69
2022/10/11 05:20:38;;;;;;;11.63;5.32;;;;;;;5.23;100.00;102414.28;5013984;28;20476;-68
2022/10/11 05:23:03;;;;;;;11.82;5.93;;;;;;;5.15;100.00;102410.50;5022499;28;20491;-68
2022/10/11 05:25:28;;;;;;;14.05;5.63;;;;;;;5.15;100.00;102407.81;5031680;28;20045;-68
2022/10/11 05:27:54;;;;;;;10.20;5.60;;;;;;;5.24;100.00;102415.94;5033108;28;20027;-69
2022/10/11 05:30:19;;;;;;;12.55;5.53;;;;;;;5.24;100.00;102419.47;5031979;28;20031;-69
2022/10/11 05:32:44;;;;;;;9.95;6.00;;;;;;;5.19;100.00;102412.88;5032915;28;20024;-71
2022/10/11 05:35:09;;;;;;;11.68;5.50;;;;;;;5.18;100.00;102424.59;5033100;28;20026;-68
2022/10/11 05:37:35;;;;;;;9.88;5.43;;;;;;;5.12;100.00;102424.22;5033275;28;20056;-71
2022/10/11 05:40:00;;;;;;;12.10;5.55;;;;;;;5.20;100.00;102423.47;5033073;28;20083;-70
2022/10/11 05:42:25;;;;;;;10.18;5.60;;;;;;;5.17;100.00;102421.06;5033222;28;20367;-68
2022/10/11 05:44:51;;;;;;;13.00;5.97;;;;;;;5.17;100.00;102425.59;5031983;28;20025;-69
2022/10/11 05:47:16;;;;;;;14.15;5.80;;;;;;;5.17;100.00;102436.34;5032968;28;20132;-69
2022/10/11 05:49:41;;;;;;;9.65;5.82;;;;;;;5.15;100.00;102431.97;5032816;28;20060;-69
2022/10/11 05:52:08;;;;;;;10.07;5.57;;;;;;;5.10;100.00;102425.34;5032595;28;20025;-70
2022/10/11 05:54:33;;;;;;;16.55;6.63;;;;;;;5.09;100.00;102435.25;5032804;28;20071;-69
2022/10/11 05:56:58;;;;;;;12.20;6.45;;;;;;;5.06;100.00;102437.41;5032761;28;20364;-70
2022/10/11 05:59:24;;;;;;;10.88;6.45;;;;;;;5.06;100.00;102429.34;5033275;28;20060;-71
2022/10/11 06:01:49;;;;;;;14.07;6.70;;;;;;;5.09;100.00;102445.16;5029074;28;20102;-71
2022/10/11 06:04:15;;;;;;;12.50;6.40;;;;;;;5.06;100.00;102440.91;5032855;28;20025;-69
2022/10/11 06:06:40;;;;;;;10.88;6.38;;;;;;;5.12;100.00;102456.41;5029941;28;20061;-70
2022/10/11 06:09:06;;;;;;;11.80;7.03;;;;;;;5.14;100.00;102448.22;5009520;28;20413;-71
2022/10/11 06:11:31;;;;;;;15.93;6.47;;;;;;;5.18;100.00;102454.09;5011544;28;20021;-69
2022/10/11 06:13:57;;;;;;;8.88;6.10;;;;;;;5.17;100.00;102457.81;5012563;28;20022;-70
2022/10/11 06:16:23;;;;;;;11.32;6.30;;;;;;;5.15;100.00;102466.84;5012654;28;20018;-70
2022/10/11 06:18:52;;;;;;;12.63;6.32;;;;;;;5.13;100.00;102452.75;5012779;28;20025;-71
2022/10/11 06:21:17;;;;;;;12.25;6.32;;;;;;;5.18;100.00;102459.47;5011629;28;20057;-70
2022/10/11 06:23:46;;;;;;;14.70;6.78;;;;;;;5.23;100.00;102462.56;5013009;28;20069;-69
2022/10/11 06:26:11;;;;;;;13.05;6.00;;;;;;;5.14;100.00;102470.50;5011110;28;20112;-71
2022/10/11 06:28:37;;;;;;;17.65;6.57;;;;;;;5.13;100.00;102473.34;5026372;28;20125;-69
2022/10/11 06:31:05;;;;;;;13.82;6.28;;;;;;;5.14;100.00;102475.03;5012583;28;20032;-71
2022/10/11 06:33:30;;;;;;;15.40;6.68;;;;;;;5.18;100.00;102468.41;5012820;28;20037;-70
2022/10/11 06:35:57;;;;;;;10.30;6.18;;;;;;;5.28;100.00;102473.69;5012524;28;20338;-69
2022/10/11 06:38:22;;;;;;;14.52;6.15;;;;;;;5.24;100.00;102481.22;5012823;28;20065;-70
2022/10/11 06:40:48;;;;;;;17.65;6.35;;;;;;;5.28;100.00;102481.75;5012790;28;20076;-70
2022/10/11 06:43:13;;;;;;;11.27;6.75;;;;;;;5.38;100.00;102485.22;5012700;28;20029;-69
2022/10/11 06:45:38;;;;;;;11.70;5.97;;;;;;;5.40;100.00;102483.22;5011372;28;20494;-69
2022/10/11 06:48:04;;;;;;;14.95;6.40;;;;;;;5.42;100.00;102483.94;5021829;28;20034;-69
2022/10/11 06:50:31;;;;;;;14.75;6.90;;;;;;;5.46;100.00;102479.94;5012609;28;20060;-69
2022/10/11 06:52:57;;;;;;;16.23;6.38;;;;;;;5.50;100.00;102480.50;5012285;28;20022;-69
2022/10/11 06:55:22;;;;;;;12.65;6.25;;;;;;;5.52;100.00;102483.03;5012731;28;20466;-70
2022/10/11 06:57:47;;;;;;;11.40;6.35;;;;;;;5.62;100.00;102491.88;5011084;28;20025;-69
2022/10/11 07:00:13;;;;;;;13.57;6.28;;;;;;;5.65;100.00;102492.41;5012625;28;20101;-69
2022/10/11 07:02:38;;;;;;;13.50;6.47;;;;;;;5.67;100.00;102482.34;5010173;28;20029;-69
2022/10/11 07:05:04;;;;;;;16.98;6.88;;;;;;;5.78;100.00;102491.19;5012349;28;20071;-68
2022/10/11 07:07:29;;;;;;;13.68;6.40;;;;;;;5.78;100.00;102496.56;5021072;28;20376;-70
2022/10/11 07:09:55;;;;;;;13.15;7.03;;;;;;;5.88;100.00;102499.19;5030506;28;20022;-69
2022/10/11 07:12:20;;;;;;;15.25;6.35;;;;;;;5.95;100.00;102502.91;5031929;28;20106;-69
2022/10/11 07:14:45;;;;;;;11.93;7.10;;;;;;;6.03;100.00;102494.97;5032178;28;20056;-70
2022/10/11 07:17:11;;;;;;;12.60;6.93;;;;;;;6.12;100.00;102515.56;5030562;28;20471;-69
2022/10/11 07:19:36;;;;;;;14.65;7.53;;;;;;;6.13;100.00;102503.81;5032418;28;20116;-69
2022/10/11 07:22:01;;;;;;;16.00;7.18;;;;;;;6.24;100.00;102507.25;5047213;28;20025;-68
2022/10/11 07:24:27;;;;;;;14.07;8.05;;;;;;;6.31;100.00;102509.16;5032189;28;20176;-69
2022/10/11 07:26:52;;;;;;;19.10;8.73;;;;;;;6.37;100.00;102505.00;5024145;28;20033;-69
2022/10/11 07:29:17;;;;;;;16.17;8.05;;;;;;;6.50;100.00;102516.19;5019967;28;20059;-68
2022/10/11 07:31:43;;;;;;;17.67;7.75;;;;;;;6.61;100.00;102517.78;5016962;28;20025;-69
2022/10/11 07:34:09;;;;;;;17.05;8.27;;;;;;;6.72;100.00;102524.75;5029355;28;20032;-68
2022/10/11 07:36:34;;;;;;;19.02;8.20;;;;;;;6.80;100.00;102522.09;5015653;28;20072;-70
2022/10/11 07:39:03;;;;;;;16.85;7.97;;;;;;;6.88;100.00;102513.25;5013922;28;20022;-69
2022/10/11 07:41:28;;;;;;;13.27;7.60;;;;;;;6.97;100.00;102523.03;5015641;28;20136;-70
2022/10/11 07:43:54;;;;;;;16.20;7.80;;;;;;;7.04;100.00;102520.56;5015544;28;20517;-70
2022/10/11 07:46:19;;;;;;;19.75;7.53;;;;;;;7.12;100.00;102523.28;5015370;28;20022;-68
2022/10/11 07:48:45;;;;;;;15.68;7.35;;;;;;;7.21;100.00;102516.94;5020161;28;20041;-69
2022/10/11 07:51:12;;;;;;;19.55;8.32;;;;;;;7.23;100.00;102514.94;5033082;28;20659;-70
2022/10/11 07:53:45;;;;;;;19.67;7.57;;;;;;;7.36;100.00;102521.72;5015658;28;20496;-71
2022/10/11 07:56:13;;;;;;;16.67;7.00;;;;;;;7.44;100.00;102529.81;5015337;28;20022;-69
2022/10/11 07:58:40;;;;;;;15.90;7.10;;;;;;;7.47;100.00;102521.41;5034404;28;20013;-68
2022/10/11 08:01:05;;;;;;;15.27;7.60;;;;;;;7.53;100.00;102528.84;5032344;28;20154;-68
2022/10/11 08:03:31;;;;;;;14.65;6.88;;;;;;;7.63;100.00;102528.72;5034731;28;20053;-67
2022/10/11 08:06:04;;;;;;;15.23;7.32;;;;;;;7.71;100.00;102530.56;5034102;28;20025;-71
2022/10/11 08:08:30;;;;;;;19.00;6.68;;;;;;;7.76;100.00;102526.38;5035086;28;20056;-69
2022/10/11 08:10:56;;;;;;;15.23;7.03;;;;;;;7.84;100.00;102530.94;5033105;28;20025;-69
2022/10/11 08:13:21;;;;;;;16.42;6.78;;;;;;;7.92;100.00;102540.91;5014237;28;20509;-69
2022/10/11 08:15:46;;;;;;;14.43;6.55;;;;;;;7.97;100.00;102533.16;5014583;28;20148;-68
2022/10/11 08:18:12;;;;;;;18.48;6.50;;;;;;;8.08;100.00;102548.19;5013385;28;20029;-69
2022/10/11 08:20:38;;;;;;;19.35;6.90;;;;;;;8.15;100.00;102543.78;5018570;28;20037;-70
2022/10/11 08:23:04;;;;;;;18.80;7.18;;;;;;;8.26;100.00;102542.63;5034361;28;20046;-68
2022/10/11 08:25:29;;;;;;;15.48;6.65;;;;;;;8.32;100.00;102542.81;5033408;28;20083;-69
2022/10/11 08:27:54;;;;;;;15.15;6.68;;;;;;;8.40;100.00;102541.13;5034130;28;20041;-69
2022/10/11 08:30:19;;;;;;;20.92;6.93;;;;;;;8.50;100.00;102547.22;5029362;28;20105;-69
2022/10/11 08:32:45;;;;;;;21.50;6.53;;;;;;;8.61;100.00;102549.56;5043199;28;20079;-69
2022/10/11 08:35:10;;;;;;;16.10;6.25;;;;;;;8.64;100.00;102540.28;5034349;28;20049;-70
2022/10/11 08:37:35;;;;;;;15.15;6.38;;;;;;;8.77;100.00;102547.84;5033169;28;20103;-69
2022/10/11 08:40:02;;;;;;;18.25;6.65;;;;;;;8.86;100.00;102549.50;5021058;28;20112;-68
2022/10/11 08:42:38;;;;;;;13.75;6.63;;;;;;;8.95;100.00;102553.03;5014611;28;20029;-69
2022/10/11 08:45:09;;;;;;;17.67;6.20;;;;;;;9.03;100.00;102548.47;5014383;28;20040;-70
2022/10/11 08:47:43;;;;;;;16.05;6.30;;;;;;;9.19;100.00;102549.44;5043594;28;20374;-70
2022/10/11 08:50:21;;;;;;;16.63;5.85;;;;;;;9.34;100.00;102555.78;5032535;28;20040;-70
2022/10/11 08:52:58;;;;;;;14.05;5.07;;;;;;;9.44;100.00;102555.59;5034043;28;20029;-68
2022/10/11 08:55:33;;;;;;;14.07;4.88;;;;;;;9.51;100.00;102558.41;5032936;28;20341;-69
2022/10/11 08:57:58;;;;;;;14.77;4.90;;;;;;;9.57;100.00;102555.00;5030855;28;20048;-71
2022/10/11 09:00:28;;;;;;;14.20;4.90;;;;;;;9.64;100.00;102563.28;5015057;28;20026;-68
2022/10/11 09:03:35;;;;;;;14.20;4.30;;;;;;;9.72;100.00;102564.09;5013269;28;20489;-70
2022/10/11 09:06:38;;;;;;;14.40;4.57;;;;;;;9.83;100.00;102565.53;5028196;28;20030;-70
2022/10/11 09:09:30;;;;;;;16.10;4.50;;;;;;;9.88;100.00;102557.72;5014623;28;20057;-70
2022/10/11 09:12:14;;;;;;;15.55;4.53;;;;;;;10.06;100.00;102572.84;5013798;28;20087;-69
2022/10/11 09:14:51;;;;;;;15.20;4.30;;;;;;;10.12;100.00;102564.00;5029234;28;20044;-70
2022/10/11 09:17:35;;;;;;;13.48;3.92;;;;;;;10.22;100.00;102567.31;5033357;28;20025;-72
2022/10/11 09:20:54;;;;;;;17.65;3.75;;;;;;;10.36;100.00;102564.88;5015053;28;20025;-71
2022/10/11 09:23:30;;;;;;;18.65;3.92;;;;;;;10.39;100.00;102564.50;4991229;28;20054;-70
2022/10/11 09:26:10;;;;;;;15.52;3.67;;;;;;;10.42;100.00;102566.84;5010691;28;20073;-74
2022/10/11 09:28:56;;;;;;;17.55;4.00;;;;;;;10.44;100.00;102571.03;5017111;28;20021;-71
2022/10/11 09:31:21;;;;;;;18.13;3.90;;;;;;;10.63;100.00;102575.13;5024573;28;20033;-69
2022/10/11 09:33:49;;;;;;;17.75;3.90;;;;;;;10.64;100.00;102568.69;5032124;28;20109;-70
2022/10/11 09:36:24;;;;;;;18.52;4.03;;;;;;;10.62;100.00;102565.31;5032835;28;20049;-70
2022/10/11 09:39:14;;;;;;;17.38;4.28;;;;;;;10.64;100.00;102574.09;5026063;28;20032;-69
2022/10/11 09:41:51;;;;;;;16.92;3.60;;;;;;;10.69;100.00;102568.13;5015991;28;20414;-68
2022/10/11 09:44:23;;;;;;;18.42;3.88;;;;;;;10.84;100.00;102567.31;5013278;28;20088;-70
2022/10/11 09:46:49;;;;;;;14.40;2.92;;;;;;;10.93;100.00;102558.94;5020226;28;20033;-71
2022/10/11 09:49:18;;;;;;;13.38;3.35;;;;;;;10.98;100.00;102567.34;5040049;28;20068;-71
2022/10/11 09:51:50;;;;;;;19.75;4.18;;;;;;;10.99;100.00;102562.75;5053047;28;20031;-70
2022/10/11 09:54:17;;;;;;;16.38;3.70;;;;;;;11.01;100.00;102560.72;5036798;28;20032;-70
2022/10/11 09:56:44;;;;;;;13.98;3.35;;;;;;;11.05;100.00;102564.75;5031709;28;20120;-69
2022/10/11 09:59:30;;;;;;;14.70;3.25;;;;;;;11.10;100.00;102565.00;5030332;28;20029;-71
2022/10/11 10:02:16;;;;;;;11.23;3.13;;;;;;;11.16;100.00;102564.25;5029932;28;20013;-70
2022/10/11 10:05:09;;;;;;;11.60;2.70;;;;;;;11.20;97.82;102566.59;5032975;28;20022;-70
2022/10/11 10:07:38;;;;;;;13.57;2.90;;;;;;;11.26;87.68;102566.69;5032673;28;20040;-70
2022/10/11 10:10:44;;;;;;;14.35;2.60;;;;;;;11.28;94.37;102563.81;5027751;28;20029;-72
2022/10/11 10:13:44;;;;;;;9.95;2.30;;;;;;;11.31;96.07;102563.44;5029878;28;20033;-72
2022/10/11 10:16:26;;;;;;;13.27;3.00;;;;;;;11.37;89.99;102565.38;4998337;28;20123;-71
2022/10/11 10:19:22;;;;;;;13.60;2.60;;;;;;;11.46;89.61;102560.72;5015812;28;20045;-71
2022/10/11 10:21:51;;;;;;;10.75;2.20;;;;;;;11.48;83.78;102564.88;5017212;28;20096;-72
2022/10/11 10:24:31;;;;;;;12.77;2.53;;;;;;;11.62;80.29;102559.63;5012326;28;20041;-71
2022/10/11 10:27:13;;;;;;;11.80;1.98;;;;;;;11.71;73.94;102561.19;5012547;28;20076;-70
2022/10/11 10:29:38;;;;;;;;;;;;;;;11.75;83.04;102559.81;5013176;28;20545;-70
2022/10/11 10:32:13;;;;;;;14.93;2.92;;;;;;;11.89;76.37;102560.78;5012401;28;19991;-71
2022/10/11 10:34:57;;;;;;;12.57;2.45;;;;;;;11.93;76.71;102566.72;4994599;28;20157;-72
2022/10/11 10:37:30;;;;;;;13.57;2.58;;;;;;;12.03;75.50;102567.22;5036092;28;20033;-70
2022/10/11 10:40:04;;;;;;;9.43;2.20;;;;;;;12.08;72.12;102556.66;5040574;28;20024;-70
2022/10/11 10:42:29;;;;;;;11.40;2.08;;;;;;;12.09;70.92;102561.03;5051583;28;20474;-71
2022/10/11 10:44:57;;;;;;;12.05;2.75;;;;;;;12.09;71.20;102558.31;5048511;28;20075;-71
2022/10/11 10:47:37;;;;;;;10.43;2.08;;;;;;;12.16;73.34;102566.53;5031808;28;20022;-71
2022/10/11 10:50:12;;;;;;;14.75;2.67;;;;;;;12.27;71.63;102562.44;5031824;28;20036;-71
2022/10/11 10:52:46;;;;;;;11.57;2.50;;;;;;;12.24;70.54;102552.81;5031963;28;20116;-71
2022/10/11 10:55:38;;;;;;;10.88;2.28;;;;;;;12.33;72.80;102553.53;5031767;28;20033;-70
2022/10/11 10:58:21;;;;;;;18.02;2.40;;;;;;;12.40;70.35;102554.44;5031749;28;20056;-71
2022/10/11 11:01:13;;;;;;;12.45;2.20;;;;;;;12.48;70.87;102551.56;5029478;28;20109;-71
2022/10/11 11:03:43;;;;;;;15.98;3.10;;;;;;;12.47;68.45;102549.03;5031373;28;20041;-70
2022/10/11 11:06:22;;;;;;;11.32;2.95;;;;;;;12.52;67.68;102552.88;5041604;28;20032;-72
2022/10/11 11:09:06;;;;;;;15.05;2.72;;;;;;;12.53;69.61;102550.97;5032287;28;20095;-72
2022/10/11 11:11:47;;;;;;;7.68;1.98;;;;;;;12.55;67.44;102549.75;5032529;28;20059;-71
2022/10/11 11:14:35;;;;;;;13.40;2.67;;;;;;;12.55;67.75;102548.94;5035064;28;20021;-71
2022/10/11 11:17:31;;;;;;;9.55;2.58;;;;;;;12.54;66.64;102548.06;5035720;28;20164;-71
2022/10/11 11:20:15;;;;;;;13.00;2.75;;;;;;;12.52;68.44;102547.44;5033915;28;20477;-70
2022/10/11 11:22:59;;;;;;;10.85;2.97;;;;;;;12.65;65.15;102540.41;5035480;28;20392;-72
2022/10/11 11:25:45;;;;;;;11.75;2.50;;;;;;;12.72;65.15;102538.59;5043602;28;20108;-70
2022/10/11 11:28:38;;;;;;;12.60;2.42;;;;;;;12.89;65.23;102537.28;5039012;28;20025;-71
2022/10/11 11:31:30;;;;;;;10.52;2.45;;;;;;;13.02;66.11;102535.66;5035230;28;20033;-72
2022/10/11 11:34:18;;;;;;;10.63;2.40;;;;;;;13.07;64.75;102535.91;5035437;28;20024;-71